sensor_id;sensor_type;location;lat;lon;timestamp;noise_LAeq;noise_LA_min;noise_LA_max;noise_LA01;noise_LA95
77133;Laerm;26708;50.304;19.028;2023-08-08T00:01:54;47.02;44.37;49.76;;
77133;Laerm;26708;50.304;19.028;2023-08-08T00:03:59;47.61;44.82;59.19;;
77133;Laerm;26708;50.304;19.028;2023-08-08T00:06:04;47.55;44.88;49.96;;
77133;Laerm;26708;50.304;19.028;2023-08-08T00:08:12;50.40;44.95;60.22;;
77133;Laerm;26708;50.304;19.028;2023-08-08T00:10:14;47.15;44.74;49.12;;
77133;Laerm;26708;50.304;19.028;2023-08-08T00:12:18;46.91;44.46;49.37;;
77133;Laerm;26708;50.304;19.028;2023-08-08T00:14:25;47.83;44.68;55.12;;
77133;Laerm;26708;50.304;19.028;2023-08-08T00:16:27;49.34;45.39;59.29;;
77133;Laerm;26708;50.304;19.028;2023-08-08T00:18:32;47.22;44.67;49.50;;
77133;Laerm;26708;50.304;19.028;2023-08-08T00:20:37;47.00;44.31;49.49;;
77133;Laerm;26708;50.304;19.028;2023-08-08T00:22:42;47.41;44.51;56.98;;
77133;Laerm;26708;50.304;19.028;2023-08-08T00:24:49;47.37;44.91;50.04;;
77133;Laerm;26708;50.304;19.028;2023-08-08T00:26:54;47.43;44.78;51.98;;
77133;Laerm;26708;50.304;19.028;2023-08-08T00:28:59;47.22;45.15;49.60;;
77133;Laerm;26708;50.304;19.028;2023-08-08T00:31:04;47.12;44.87;49.71;;
77133;Laerm;26708;50.304;19.028;2023-08-08T00:33:09;47.38;45.02;50.24;;
77133;Laerm;26708;50.304;19.028;2023-08-08T00:35:14;46.92;44.18;49.32;;
77133;Laerm;26708;50.304;19.028;2023-08-08T00:37:20;47.07;44.86;49.67;;
77133;Laerm;26708;50.304;19.028;2023-08-08T00:39:26;47.43;44.14;52.03;;
77133;Laerm;26708;50.304;19.028;2023-08-08T00:41:33;47.43;44.95;51.16;;
77133;Laerm;26708;50.304;19.028;2023-08-08T00:43:38;47.07;44.48;50.54;;
77133;Laerm;26708;50.304;19.028;2023-08-08T00:45:46;46.81;44.46;49.39;;
77133;Laerm;26708;50.304;19.028;2023-08-08T00:47:51;46.99;44.49;56.84;;
77133;Laerm;26708;50.304;19.028;2023-08-08T00:49:57;48.84;45.00;55.08;;
77133;Laerm;26708;50.304;19.028;2023-08-08T00:52:03;47.34;44.86;50.29;;
77133;Laerm;26708;50.304;19.028;2023-08-08T00:54:10;47.01;44.62;49.14;;
77133;Laerm;26708;50.304;19.028;2023-08-08T00:56:14;46.97;44.38;49.37;;
77133;Laerm;26708;50.304;19.028;2023-08-08T00:58:24;46.97;44.75;49.13;;
77133;Laerm;26708;50.304;19.028;2023-08-08T01:00:29;47.13;44.38;50.73;;
77133;Laerm;26708;50.304;19.028;2023-08-08T01:02:34;47.09;44.96;49.44;;
77133;Laerm;26708;50.304;19.028;2023-08-08T01:04:40;47.00;44.67;49.33;;
77133;Laerm;26708;50.304;19.028;2023-08-08T01:07:01;48.45;44.60;59.68;;
77133;Laerm;26708;50.304;19.028;2023-08-08T01:09:20;46.94;44.58;49.49;;
77133;Laerm;26708;50.304;19.028;2023-08-08T01:11:34;47.00;44.71;49.27;;
77133;Laerm;26708;50.304;19.028;2023-08-08T01:13:43;47.10;44.54;49.63;;
77133;Laerm;26708;50.304;19.028;2023-08-08T01:15:52;47.29;44.85;53.22;;
77133;Laerm;26708;50.304;19.028;2023-08-08T01:17:59;46.90;44.38;49.07;;
77133;Laerm;26708;50.304;19.028;2023-08-08T01:20:07;47.07;44.53;50.56;;
77133;Laerm;26708;50.304;19.028;2023-08-08T01:22:25;46.98;44.25;49.86;;
77133;Laerm;26708;50.304;19.028;2023-08-08T01:24:38;47.15;44.77;49.53;;
77133;Laerm;26708;50.304;19.028;2023-08-08T01:26:43;47.11;44.31;50.77;;
77133;Laerm;26708;50.304;19.028;2023-08-08T01:28:48;46.99;44.55;49.06;;
77133;Laerm;26708;50.304;19.028;2023-08-08T01:30:53;46.94;44.63;49.54;;
77133;Laerm;26708;50.304;19.028;2023-08-08T01:32:59;53.45;44.10;75.11;;
77133;Laerm;26708;50.304;19.028;2023-08-08T01:35:06;47.57;45.17;50.94;;
77133;Laerm;26708;50.304;19.028;2023-08-08T01:37:19;47.24;44.97;50.35;;
77133;Laerm;26708;50.304;19.028;2023-08-08T01:39:32;47.00;44.56;49.57;;
77133;Laerm;26708;50.304;19.028;2023-08-08T01:41:44;46.87;44.37;50.94;;
77133;Laerm;26708;50.304;19.028;2023-08-08T01:43:50;46.72;44.39;48.91;;
77133;Laerm;26708;50.304;19.028;2023-08-08T01:45:56;41.67;38.21;48.56;;
77133;Laerm;26708;50.304;19.028;2023-08-08T01:48:07;42.37;39.79;44.95;;
77133;Laerm;26708;50.304;19.028;2023-08-08T01:50:12;41.96;39.27;46.17;;
77133;Laerm;26708;50.304;19.028;2023-08-08T01:52:17;41.91;38.86;52.97;;
77133;Laerm;26708;50.304;19.028;2023-08-08T01:54:24;47.43;39.63;62.33;;
77133;Laerm;26708;50.304;19.028;2023-08-08T01:56:30;46.74;38.99;67.83;;
77133;Laerm;26708;50.304;19.028;2023-08-08T01:58:39;46.78;42.65;65.74;;
77133;Laerm;26708;50.304;19.028;2023-08-08T02:00:44;45.70;37.77;64.66;;
77133;Laerm;26708;50.304;19.028;2023-08-08T02:02:49;41.73;38.40;52.21;;
77133;Laerm;26708;50.304;19.028;2023-08-08T02:04:54;42.00;39.31;47.60;;
77133;Laerm;26708;50.304;19.028;2023-08-08T02:06:59;42.61;39.07;54.75;;
77133;Laerm;26708;50.304;19.028;2023-08-08T02:09:04;42.14;39.39;48.78;;
77133;Laerm;26708;50.304;19.028;2023-08-08T02:11:11;41.50;38.68;46.51;;
77133;Laerm;26708;50.304;19.028;2023-08-08T02:13:16;47.76;39.02;64.02;;
77133;Laerm;26708;50.304;19.028;2023-08-08T02:15:23;47.92;40.24;62.14;;
77133;Laerm;26708;50.304;19.028;2023-08-08T02:17:29;50.57;40.22;66.76;;
77133;Laerm;26708;50.304;19.028;2023-08-08T02:19:34;45.00;39.50;66.84;;
77133;Laerm;26708;50.304;19.028;2023-08-08T02:21:38;41.74;39.63;47.10;;
77133;Laerm;26708;50.304;19.028;2023-08-08T02:23:44;41.64;38.82;45.87;;
77133;Laerm;26708;50.304;19.028;2023-08-08T02:25:48;41.40;38.71;48.00;;
77133;Laerm;26708;50.304;19.028;2023-08-08T02:27:53;41.21;37.86;46.31;;
77133;Laerm;26708;50.304;19.028;2023-08-08T02:29:56;42.03;38.03;53.68;;
77133;Laerm;26708;50.304;19.028;2023-08-08T02:32:05;42.05;38.24;52.96;;
77133;Laerm;26708;50.304;19.028;2023-08-08T02:34:10;40.97;37.88;48.46;;
77133;Laerm;26708;50.304;19.028;2023-08-08T02:36:16;44.91;38.92;53.24;;
77133;Laerm;26708;50.304;19.028;2023-08-08T02:38:21;42.29;39.11;47.13;;
77133;Laerm;26708;50.304;19.028;2023-08-08T02:40:26;53.45;39.50;68.48;;
77133;Laerm;26708;50.304;19.028;2023-08-08T02:42:32;49.78;39.61;67.43;;
77133;Laerm;26708;50.304;19.028;2023-08-08T02:44:37;43.00;40.21;52.51;;
77133;Laerm;26708;50.304;19.028;2023-08-08T02:46:41;42.85;39.88;48.86;;
77133;Laerm;26708;50.304;19.028;2023-08-08T02:48:49;42.88;39.73;50.61;;
77133;Laerm;26708;50.304;19.028;2023-08-08T02:50:54;41.89;39.01;46.31;;
77133;Laerm;26708;50.304;19.028;2023-08-08T02:53:00;42.44;39.08;49.93;;
77133;Laerm;26708;50.304;19.028;2023-08-08T02:55:10;43.56;39.28;55.97;;
77133;Laerm;26708;50.304;19.028;2023-08-08T02:57:13;43.46;39.90;49.33;;
77133;Laerm;26708;50.304;19.028;2023-08-08T02:59:19;42.64;39.55;51.44;;
77133;Laerm;26708;50.304;19.028;2023-08-08T03:01:26;44.74;39.62;50.00;;
77133;Laerm;26708;50.304;19.028;2023-08-08T03:03:32;43.84;39.95;51.77;;
77133;Laerm;26708;50.304;19.028;2023-08-08T03:05:40;41.95;38.58;51.29;;
77133;Laerm;26708;50.304;19.028;2023-08-08T03:07:46;43.48;39.25;50.79;;
77133;Laerm;26708;50.304;19.028;2023-08-08T03:09:51;43.84;40.02;50.54;;
77133;Laerm;26708;50.304;19.028;2023-08-08T03:11:56;43.09;39.84;48.35;;
77133;Laerm;26708;50.304;19.028;2023-08-08T03:14:01;51.45;39.89;66.31;;
77133;Laerm;26708;50.304;19.028;2023-08-08T03:16:07;50.42;40.29;64.08;;
77133;Laerm;26708;50.304;19.028;2023-08-08T03:18:12;51.60;40.05;64.77;;
77133;Laerm;26708;50.304;19.028;2023-08-08T03:20:18;52.38;46.37;67.28;;
77133;Laerm;26708;50.304;19.028;2023-08-08T03:22:25;52.32;46.47;67.31;;
77133;Laerm;26708;50.304;19.028;2023-08-08T03:24:30;49.63;46.57;57.77;;
77133;Laerm;26708;50.304;19.028;2023-08-08T03:26:35;48.82;46.09;52.22;;
77133;Laerm;26708;50.304;19.028;2023-08-08T03:28:40;52.30;45.85;68.74;;
77133;Laerm;26708;50.304;19.028;2023-08-08T03:30:44;53.54;45.79;70.84;;
77133;Laerm;26708;50.304;19.028;2023-08-08T03:32:50;48.53;45.99;60.63;;
77133;Laerm;26708;50.304;19.028;2023-08-08T03:34:55;53.84;45.97;70.02;;
77133;Laerm;26708;50.304;19.028;2023-08-08T03:37:00;48.30;45.65;53.42;;
77133;Laerm;26708;50.304;19.028;2023-08-08T03:39:08;48.80;45.85;54.90;;
77133;Laerm;26708;50.304;19.028;2023-08-08T03:41:13;53.40;46.17;69.32;;
77133;Laerm;26708;50.304;19.028;2023-08-08T03:43:17;50.43;45.71;64.76;;
77133;Laerm;26708;50.304;19.028;2023-08-08T03:45:20;52.90;45.87;66.58;;
77133;Laerm;26708;50.304;19.028;2023-08-08T03:47:25;49.62;46.65;56.86;;
77133;Laerm;26708;50.304;19.028;2023-08-08T03:49:29;48.49;45.85;53.09;;
77133;Laerm;26708;50.304;19.028;2023-08-08T03:51:33;52.81;46.43;65.98;;
77133;Laerm;26708;50.304;19.028;2023-08-08T03:53:39;48.63;46.02;55.42;;
77133;Laerm;26708;50.304;19.028;2023-08-08T03:55:46;54.18;46.14;68.51;;
77133;Laerm;26708;50.304;19.028;2023-08-08T03:57:53;55.15;45.55;72.25;;
77133;Laerm;26708;50.304;19.028;2023-08-08T03:59:57;54.17;45.89;67.09;;
77133;Laerm;26708;50.304;19.028;2023-08-08T04:02:02;47.94;45.25;51.09;;
77133;Laerm;26708;50.304;19.028;2023-08-08T04:04:08;48.47;45.55;51.21;;
77133;Laerm;26708;50.304;19.028;2023-08-08T04:06:14;52.86;45.93;65.26;;
77133;Laerm;26708;50.304;19.028;2023-08-08T04:08:18;54.39;45.98;71.55;;
77133;Laerm;26708;50.304;19.028;2023-08-08T04:10:24;53.08;46.09;67.22;;
77133;Laerm;26708;50.304;19.028;2023-08-08T04:12:31;52.17;45.63;66.88;;
77133;Laerm;26708;50.304;19.028;2023-08-08T04:14:36;52.94;45.72;65.97;;
77133;Laerm;26708;50.304;19.028;2023-08-08T04:16:42;55.04;45.73;72.01;;
77133;Laerm;26708;50.304;19.028;2023-08-08T04:18:46;55.92;46.26;70.69;;
77133;Laerm;26708;50.304;19.028;2023-08-08T04:20:51;52.15;46.27;66.52;;
77133;Laerm;26708;50.304;19.028;2023-08-08T04:22:56;54.86;46.12;68.66;;
77133;Laerm;26708;50.304;19.028;2023-08-08T04:25:01;54.74;46.64;67.59;;
77133;Laerm;26708;50.304;19.028;2023-08-08T04:27:06;52.94;46.72;63.82;;
77133;Laerm;26708;50.304;19.028;2023-08-08T04:29:15;51.93;45.45;68.06;;
77133;Laerm;26708;50.304;19.028;2023-08-08T04:31:19;55.91;46.53;71.83;;
77133;Laerm;26708;50.304;19.028;2023-08-08T04:33:26;57.31;46.47;73.22;;
77133;Laerm;26708;50.304;19.028;2023-08-08T04:35:31;58.96;46.86;74.15;;
77133;Laerm;26708;50.304;19.028;2023-08-08T04:37:36;55.72;46.22;71.72;;
77133;Laerm;26708;50.304;19.028;2023-08-08T04:39:40;57.53;46.51;68.81;;
77133;Laerm;26708;50.304;19.028;2023-08-08T04:41:46;57.13;47.27;70.94;;
77133;Laerm;26708;50.304;19.028;2023-08-08T04:43:50;57.26;47.20;68.22;;
77133;Laerm;26708;50.304;19.028;2023-08-08T04:45:58;57.17;47.25;73.20;;
77133;Laerm;26708;50.304;19.028;2023-08-08T04:48:05;54.55;47.27;67.95;;
77133;Laerm;26708;50.304;19.028;2023-08-08T04:50:10;57.70;47.20;68.95;;
77133;Laerm;26708;50.304;19.028;2023-08-08T04:52:15;60.36;47.49;71.40;;
77133;Laerm;26708;50.304;19.028;2023-08-08T04:54:20;59.44;47.86;70.11;;
77133;Laerm;26708;50.304;19.028;2023-08-08T04:56:25;56.62;48.72;68.20;;
77133;Laerm;26708;50.304;19.028;2023-08-08T04:58:30;52.07;46.26;64.98;;
77133;Laerm;26708;50.304;19.028;2023-08-08T05:00:35;52.22;46.96;64.78;;
77133;Laerm;26708;50.304;19.028;2023-08-08T05:02:43;55.01;47.60;67.15;;
77133;Laerm;26708;50.304;19.028;2023-08-08T05:04:47;55.69;47.38;67.90;;
77133;Laerm;26708;50.304;19.028;2023-08-08T05:06:53;52.85;46.92;65.37;;
77133;Laerm;26708;50.304;19.028;2023-08-08T05:08:57;55.19;46.83;67.01;;
77133;Laerm;26708;50.304;19.028;2023-08-08T05:11:02;56.08;47.45;66.99;;
77133;Laerm;26708;50.304;19.028;2023-08-08T05:13:08;58.86;47.11;72.01;;
77133;Laerm;26708;50.304;19.028;2023-08-08T05:15:12;56.29;46.48;68.81;;
77133;Laerm;26708;50.304;19.028;2023-08-08T05:17:17;57.51;46.72;70.11;;
77133;Laerm;26708;50.304;19.028;2023-08-08T05:19:25;59.42;46.57;73.21;;
77133;Laerm;26708;50.304;19.028;2023-08-08T05:21:29;56.46;46.04;71.03;;
77133;Laerm;26708;50.304;19.028;2023-08-08T05:23:34;57.37;46.42;69.87;;
77133;Laerm;26708;50.304;19.028;2023-08-08T05:25:39;52.89;46.48;68.25;;
77133;Laerm;26708;50.304;19.028;2023-08-08T05:27:44;50.30;46.04;71.77;;
77133;Laerm;26708;50.304;19.028;2023-08-08T05:29:49;57.41;46.37;68.46;;
77133;Laerm;26708;50.304;19.028;2023-08-08T05:31:55;57.50;48.42;69.49;;
77133;Laerm;26708;50.304;19.028;2023-08-08T05:33:59;57.08;47.30;67.06;;
77133;Laerm;26708;50.304;19.028;2023-08-08T05:36:07;57.39;46.67;69.49;;
77133;Laerm;26708;50.304;19.028;2023-08-08T05:38:10;54.11;46.73;70.40;;
77133;Laerm;26708;50.304;19.028;2023-08-08T05:40:14;59.39;47.01;72.71;;
77133;Laerm;26708;50.304;19.028;2023-08-08T05:42:19;58.61;47.30;73.88;;
77133;Laerm;26708;50.304;19.028;2023-08-08T05:44:22;57.31;46.91;69.93;;
77133;Laerm;26708;50.304;19.028;2023-08-08T05:46:26;54.42;46.76;65.86;;
77133;Laerm;26708;50.304;19.028;2023-08-08T05:48:31;56.58;46.77;67.68;;
77133;Laerm;26708;50.304;19.028;2023-08-08T05:50:36;56.51;47.14;67.28;;
77133;Laerm;26708;50.304;19.028;2023-08-08T05:52:44;56.35;47.23;69.55;;
77133;Laerm;26708;50.304;19.028;2023-08-08T05:54:48;57.65;47.11;69.51;;
77133;Laerm;26708;50.304;19.028;2023-08-08T05:56:54;56.38;47.30;67.73;;
77133;Laerm;26708;50.304;19.028;2023-08-08T05:58:59;57.01;46.59;65.29;;
77133;Laerm;26708;50.304;19.028;2023-08-08T06:01:03;62.94;48.02;78.19;;
77133;Laerm;26708;50.304;19.028;2023-08-08T06:03:13;55.05;46.69;67.12;;
77133;Laerm;26708;50.304;19.028;2023-08-08T06:05:19;58.17;47.00;84.95;;
77133;Laerm;26708;50.304;19.028;2023-08-08T06:07:25;57.62;47.43;68.86;;
77133;Laerm;26708;50.304;19.028;2023-08-08T06:09:34;56.23;47.14;68.38;;
77133;Laerm;26708;50.304;19.028;2023-08-08T06:11:38;57.09;46.40;70.54;;
77133;Laerm;26708;50.304;19.028;2023-08-08T06:13:43;57.11;46.76;67.36;;
77133;Laerm;26708;50.304;19.028;2023-08-08T06:15:48;57.92;47.43;69.68;;
77133;Laerm;26708;50.304;19.028;2023-08-08T06:17:53;55.16;46.89;72.39;;
77133;Laerm;26708;50.304;19.028;2023-08-08T06:19:57;55.37;46.69;68.19;;
77133;Laerm;26708;50.304;19.028;2023-08-08T06:22:03;70.28;47.45;73.84;;
77133;Laerm;26708;50.304;19.028;2023-08-08T06:24:08;71.04;68.69;73.67;;
77133;Laerm;26708;50.304;19.028;2023-08-08T06:26:15;70.71;68.45;73.07;;
77133;Laerm;26708;50.304;19.028;2023-08-08T06:28:20;70.81;68.43;74.02;;
77133;Laerm;26708;50.304;19.028;2023-08-08T06:30:25;70.78;68.14;73.57;;
77133;Laerm;26708;50.304;19.028;2023-08-08T06:32:29;70.70;68.58;73.41;;
77133;Laerm;26708;50.304;19.028;2023-08-08T06:34:35;70.70;68.36;74.73;;
77133;Laerm;26708;50.304;19.028;2023-08-08T06:36:39;70.70;68.20;74.18;;
77133;Laerm;26708;50.304;19.028;2023-08-08T06:38:44;70.58;67.90;74.03;;
77133;Laerm;26708;50.304;19.028;2023-08-08T06:40:49;70.38;68.02;74.95;;
77133;Laerm;26708;50.304;19.028;2023-08-08T06:42:57;70.48;68.17;74.14;;
77133;Laerm;26708;50.304;19.028;2023-08-08T06:45:01;70.54;68.24;74.12;;
77133;Laerm;26708;50.304;19.028;2023-08-08T06:47:07;70.37;68.15;73.44;;
77133;Laerm;26708;50.304;19.028;2023-08-08T06:49:12;70.67;68.23;73.91;;
77133;Laerm;26708;50.304;19.028;2023-08-08T06:51:16;65.59;46.86;72.85;;
77133;Laerm;26708;50.304;19.028;2023-08-08T06:53:23;58.18;46.82;71.06;;
77133;Laerm;26708;50.304;19.028;2023-08-08T06:55:28;59.29;47.64;76.08;;
77133;Laerm;26708;50.304;19.028;2023-08-08T06:57:34;57.95;46.75;69.68;;
77133;Laerm;26708;50.304;19.028;2023-08-08T06:59:42;54.95;46.87;67.22;;
77133;Laerm;26708;50.304;19.028;2023-08-08T07:01:51;57.70;47.85;68.00;;
77133;Laerm;26708;50.304;19.028;2023-08-08T07:03:57;57.33;46.91;68.98;;
77133;Laerm;26708;50.304;19.028;2023-08-08T07:06:03;55.74;47.66;68.10;;
77133;Laerm;26708;50.304;19.028;2023-08-08T07:08:08;56.12;46.95;68.33;;
77133;Laerm;26708;50.304;19.028;2023-08-08T07:10:13;56.02;47.10;67.59;;
77133;Laerm;26708;50.304;19.028;2023-08-08T07:12:18;57.77;47.97;73.41;;
77133;Laerm;26708;50.304;19.028;2023-08-08T07:14:22;57.47;47.60;67.75;;
77133;Laerm;26708;50.304;19.028;2023-08-08T07:16:30;54.98;47.20;65.67;;
77133;Laerm;26708;50.304;19.028;2023-08-08T07:18:35;55.85;46.75;67.71;;
77133;Laerm;26708;50.304;19.028;2023-08-08T07:20:39;57.42;46.49;69.48;;
77133;Laerm;26708;50.304;19.028;2023-08-08T07:22:44;56.92;47.52;66.87;;
77133;Laerm;26708;50.304;19.028;2023-08-08T07:24:50;56.71;47.29;69.15;;
77133;Laerm;26708;50.304;19.028;2023-08-08T07:26:55;57.07;47.53;71.00;;
77133;Laerm;26708;50.304;19.028;2023-08-08T07:28:59;56.58;47.13;70.07;;
77133;Laerm;26708;50.304;19.028;2023-08-08T07:31:04;53.02;46.67;65.26;;
77133;Laerm;26708;50.304;19.028;2023-08-08T07:33:12;57.84;46.64;68.95;;
77133;Laerm;26708;50.304;19.028;2023-08-08T07:35:15;52.38;46.43;64.66;;
77133;Laerm;26708;50.304;19.028;2023-08-08T07:37:20;57.19;47.57;67.82;;
77133;Laerm;26708;50.304;19.028;2023-08-08T07:39:25;58.32;48.04;73.23;;
77133;Laerm;26708;50.304;19.028;2023-08-08T07:41:31;54.98;47.28;67.91;;
77133;Laerm;26708;50.304;19.028;2023-08-08T07:43:37;57.70;47.18;70.58;;
77133;Laerm;26708;50.304;19.028;2023-08-08T07:45:42;58.83;48.62;71.01;;
77133;Laerm;26708;50.304;19.028;2023-08-08T07:47:46;57.24;47.76;67.95;;
77133;Laerm;26708;50.304;19.028;2023-08-08T07:49:54;57.52;45.99;70.87;;
77133;Laerm;26708;50.304;19.028;2023-08-08T07:51:59;58.09;47.83;68.25;;
77133;Laerm;26708;50.304;19.028;2023-08-08T07:54:01;59.41;47.97;72.83;;
77133;Laerm;26708;50.304;19.028;2023-08-08T07:56:07;57.05;46.98;70.77;;
77133;Laerm;26708;50.304;19.028;2023-08-08T07:58:12;56.23;47.21;69.12;;
77133;Laerm;26708;50.304;19.028;2023-08-08T08:00:18;55.19;47.12;65.75;;
77133;Laerm;26708;50.304;19.028;2023-08-08T08:02:24;58.30;47.77;75.76;;
77133;Laerm;26708;50.304;19.028;2023-08-08T08:04:26;57.75;46.91;71.23;;
77133;Laerm;26708;50.304;19.028;2023-08-08T08:06:33;56.62;47.07;70.07;;
77133;Laerm;26708;50.304;19.028;2023-08-08T08:08:39;59.92;46.66;75.82;;
77133;Laerm;26708;50.304;19.028;2023-08-08T08:10:43;59.32;47.62;70.07;;
77133;Laerm;26708;50.304;19.028;2023-08-08T08:12:49;57.03;47.44;68.28;;
77133;Laerm;26708;50.304;19.028;2023-08-08T08:15:00;55.60;47.60;67.41;;
77133;Laerm;26708;50.304;19.028;2023-08-08T08:17:02;57.89;46.48;70.03;;
77133;Laerm;26708;50.304;19.028;2023-08-08T08:19:07;61.28;48.58;74.46;;
77133;Laerm;26708;50.304;19.028;2023-08-08T08:21:10;57.29;47.81;69.82;;
77133;Laerm;26708;50.304;19.028;2023-08-08T08:23:17;57.89;47.30;69.32;;
77133;Laerm;26708;50.304;19.028;2023-08-08T08:25:21;57.50;48.57;66.56;;
77133;Laerm;26708;50.304;19.028;2023-08-08T08:27:27;55.54;47.46;65.97;;
77133;Laerm;26708;50.304;19.028;2023-08-08T08:29:31;57.36;48.28;70.88;;
77133;Laerm;26708;50.304;19.028;2023-08-08T08:31:36;57.68;47.87;66.06;;
77133;Laerm;26708;50.304;19.028;2023-08-08T08:33:42;58.76;47.84;68.74;;
77133;Laerm;26708;50.304;19.028;2023-08-08T08:35:46;58.53;48.07;67.23;;
77133;Laerm;26708;50.304;19.028;2023-08-08T08:37:51;57.88;47.39;70.08;;
77133;Laerm;26708;50.304;19.028;2023-08-08T08:39:59;57.63;47.49;68.81;;
77133;Laerm;26708;50.304;19.028;2023-08-08T08:42:03;56.43;48.26;66.93;;
77133;Laerm;26708;50.304;19.028;2023-08-08T08:44:09;58.52;48.54;68.76;;
77133;Laerm;26708;50.304;19.028;2023-08-08T08:46:20;56.77;48.07;66.62;;
77133;Laerm;26708;50.304;19.028;2023-08-08T08:48:25;54.19;47.25;66.88;;
77133;Laerm;26708;50.304;19.028;2023-08-08T08:50:32;55.61;47.47;66.29;;
77133;Laerm;26708;50.304;19.028;2023-08-08T08:52:39;57.68;47.30;70.11;;
77133;Laerm;26708;50.304;19.028;2023-08-08T08:54:43;56.14;46.90;66.95;;
77133;Laerm;26708;50.304;19.028;2023-08-08T08:56:51;57.05;46.86;70.73;;
77133;Laerm;26708;50.304;19.028;2023-08-08T08:58:57;57.36;47.42;70.66;;
77133;Laerm;26708;50.304;19.028;2023-08-08T09:01:02;58.12;47.71;69.70;;
77133;Laerm;26708;50.304;19.028;2023-08-08T09:03:07;59.97;47.47;74.61;;
77133;Laerm;26708;50.304;19.028;2023-08-08T09:05:15;60.01;47.89;70.89;;
77133;Laerm;26708;50.304;19.028;2023-08-08T09:07:27;59.90;48.64;77.41;;
77133;Laerm;26708;50.304;19.028;2023-08-08T09:09:33;61.30;46.67;74.31;;
77133;Laerm;26708;50.304;19.028;2023-08-08T09:11:40;59.05;46.72;69.43;;
77133;Laerm;26708;50.304;19.028;2023-08-08T09:13:48;59.02;47.03;72.28;;
77133;Laerm;26708;50.304;19.028;2023-08-08T09:15:53;59.12;47.08;72.56;;
77133;Laerm;26708;50.304;19.028;2023-08-08T09:17:56;58.28;46.57;70.23;;
77133;Laerm;26708;50.304;19.028;2023-08-08T09:20:00;57.44;47.67;67.19;;
77133;Laerm;26708;50.304;19.028;2023-08-08T09:22:06;58.81;47.99;70.73;;
77133;Laerm;26708;50.304;19.028;2023-08-08T09:24:12;56.39;47.68;70.07;;
77133;Laerm;26708;50.304;19.028;2023-08-08T09:26:17;59.19;48.18;69.17;;
77133;Laerm;26708;50.304;19.028;2023-08-08T09:28:22;56.82;48.80;68.12;;
77133;Laerm;26708;50.304;19.028;2023-08-08T09:30:30;58.22;49.30;67.96;;
77133;Laerm;26708;50.304;19.028;2023-08-08T09:32:35;55.61;47.19;69.94;;
77133;Laerm;26708;50.304;19.028;2023-08-08T09:34:37;55.60;46.95;67.11;;
77133;Laerm;26708;50.304;19.028;2023-08-08T09:36:45;57.30;46.28;68.71;;
77133;Laerm;26708;50.304;19.028;2023-08-08T09:38:50;58.23;48.32;69.46;;
77133;Laerm;26708;50.304;19.028;2023-08-08T09:40:55;58.41;47.41;75.17;;
77133;Laerm;26708;50.304;19.028;2023-08-08T09:43:00;57.19;47.26;67.47;;
77133;Laerm;26708;50.304;19.028;2023-08-08T09:45:08;55.16;46.18;65.54;;
77133;Laerm;26708;50.304;19.028;2023-08-08T09:47:16;57.39;46.70;71.06;;
77133;Laerm;26708;50.304;19.028;2023-08-08T09:49:22;55.33;47.19;64.77;;
77133;Laerm;26708;50.304;19.028;2023-08-08T09:51:29;56.62;47.30;67.53;;
77133;Laerm;26708;50.304;19.028;2023-08-08T09:53:36;57.32;47.44;67.37;;
77133;Laerm;26708;50.304;19.028;2023-08-08T09:55:48;58.21;46.99;71.27;;
77133;Laerm;26708;50.304;19.028;2023-08-08T09:57:52;57.38;46.67;68.98;;
77133;Laerm;26708;50.304;19.028;2023-08-08T10:00:08;57.71;47.55;69.00;;
77133;Laerm;26708;50.304;19.028;2023-08-08T10:02:25;58.11;48.69;71.20;;
77133;Laerm;26708;50.304;19.028;2023-08-08T10:04:32;57.16;47.38;68.16;;
77133;Laerm;26708;50.304;19.028;2023-08-08T10:06:38;59.94;47.84;74.42;;
77133;Laerm;26708;50.304;19.028;2023-08-08T10:08:49;58.32;49.07;71.22;;
77133;Laerm;26708;50.304;19.028;2023-08-08T10:11:07;58.84;48.36;68.13;;
77133;Laerm;26708;50.304;19.028;2023-08-08T10:13:20;56.35;48.46;66.00;;
77133;Laerm;26708;50.304;19.028;2023-08-08T10:15:28;61.06;47.14;77.65;;
77133;Laerm;26708;50.304;19.028;2023-08-08T10:17:41;57.78;48.49;67.42;;
77133;Laerm;26708;50.304;19.028;2023-08-08T10:19:55;58.43;48.52;68.17;;
77133;Laerm;26708;50.304;19.028;2023-08-08T10:22:05;55.04;47.61;66.95;;
77133;Laerm;26708;50.304;19.028;2023-08-08T10:24:13;57.24;47.79;71.20;;
77133;Laerm;26708;50.304;19.028;2023-08-08T10:26:24;54.24;47.13;65.53;;
77133;Laerm;26708;50.304;19.028;2023-08-08T10:28:33;58.44;47.98;69.30;;
77133;Laerm;26708;50.304;19.028;2023-08-08T10:30:45;55.70;46.59;68.05;;
77133;Laerm;26708;50.304;19.028;2023-08-08T10:32:57;56.29;46.71;68.44;;
77133;Laerm;26708;50.304;19.028;2023-08-08T10:35:06;57.44;46.79;71.46;;
77133;Laerm;26708;50.304;19.028;2023-08-08T10:37:13;60.27;48.34;81.47;;
77133;Laerm;26708;50.304;19.028;2023-08-08T10:39:21;59.44;49.25;73.13;;
77133;Laerm;26708;50.304;19.028;2023-08-08T10:41:27;58.32;49.66;71.93;;
77133;Laerm;26708;50.304;19.028;2023-08-08T10:43:48;59.66;48.17;72.00;;
77133;Laerm;26708;50.304;19.028;2023-08-08T10:46:07;58.35;48.35;69.73;;
77133;Laerm;26708;50.304;19.028;2023-08-08T10:48:19;57.64;47.62;73.39;;
77133;Laerm;26708;50.304;19.028;2023-08-08T10:50:25;56.86;48.31;67.80;;
77133;Laerm;26708;50.304;19.028;2023-08-08T10:52:32;59.65;47.69;70.50;;
77133;Laerm;26708;50.304;19.028;2023-08-08T10:54:38;59.50;47.76;72.05;;
77133;Laerm;26708;50.304;19.028;2023-08-08T10:56:54;58.12;47.31;69.35;;
77133;Laerm;26708;50.304;19.028;2023-08-08T10:59:14;54.64;46.63;67.67;;
77133;Laerm;26708;50.304;19.028;2023-08-08T11:01:26;54.32;47.19;66.10;;
77133;Laerm;26708;50.304;19.028;2023-08-08T11:03:37;59.81;48.60;75.68;;
77133;Laerm;26708;50.304;19.028;2023-08-08T11:05:46;56.63;47.21;69.55;;
77133;Laerm;26708;50.304;19.028;2023-08-08T11:07:53;56.68;46.45;67.78;;
77133;Laerm;26708;50.304;19.028;2023-08-08T11:10:00;56.51;47.40;69.01;;
77133;Laerm;26708;50.304;19.028;2023-08-08T11:12:14;55.46;47.12;67.10;;
77133;Laerm;26708;50.304;19.028;2023-08-08T11:14:22;58.34;47.06;75.84;;
77133;Laerm;26708;50.304;19.028;2023-08-08T11:16:29;55.19;47.09;65.00;;
77133;Laerm;26708;50.304;19.028;2023-08-08T11:18:42;55.57;46.31;69.94;;
77133;Laerm;26708;50.304;19.028;2023-08-08T11:20:49;55.09;46.27;66.14;;
77133;Laerm;26708;50.304;19.028;2023-08-08T11:23:04;58.62;47.91;71.14;;
77133;Laerm;26708;50.304;19.028;2023-08-08T11:25:16;55.54;47.25;68.84;;
77133;Laerm;26708;50.304;19.028;2023-08-08T11:27:24;59.66;49.59;71.47;;
77133;Laerm;26708;50.304;19.028;2023-08-08T11:29:29;55.77;47.44;70.07;;
77133;Laerm;26708;50.304;19.028;2023-08-08T11:31:36;55.23;47.24;71.88;;
77133;Laerm;26708;50.304;19.028;2023-08-08T11:33:47;56.30;48.09;66.57;;
77133;Laerm;26708;50.304;19.028;2023-08-08T11:35:52;55.86;47.14;69.27;;
77133;Laerm;26708;50.304;19.028;2023-08-08T11:37:59;56.08;47.03;70.42;;